Time;durP1;ratioP1;P1;durP2;ratioP2;P2;SDS_P1;SDS_P2;PMS_P1;PMS_P2;Temp;Humidity;BMP_temperature;BMP_pressure;BME280_temperature;BME280_humidity;BME280_pressure;Samples;Min_cycle;Max_cycle;Signal;HPM_P1;HPM_P2
2023/09/08 00:04:37;;;;;;;12.07;8.35;;;12.00;99.90;;;;;;21053003;28;20040;-60
2023/09/08 00:14:39;;;;;;;11.20;7.88;;;12.00;99.90;;;;;;21051507;28;20036;-55
2023/09/08 00:24:41;;;;;;;10.68;8.25;;;12.10;99.90;;;;;;21033950;28;20054;-61
2023/09/08 00:34:43;;;;;;;8.35;7.45;;;11.90;99.90;;;;;;21051822;28;20035;-62
2023/09/08 00:44:45;;;;;;;9.93;8.05;;;11.90;99.90;;;;;;21050789;28;20020;-60
2023/09/08 00:54:46;;;;;;;11.93;6.55;;;11.80;99.90;;;;;;21050802;28;20427;-61
2023/09/08 01:04:49;;;;;;;9.52;6.25;;;11.70;99.90;;;;;;21032267;28;20051;-61
2023/09/08 01:14:51;;;;;;;8.57;6.85;;;11.70;99.90;;;;;;21049784;28;20481;-61
2023/09/08 01:25:12;;;;;;;7.35;5.97;;;11.60;99.90;;;;;;21039516;28;20039;-61
2023/09/08 01:35:14;;;;;;;9.50;4.68;;;11.50;99.90;;;;;;21065050;28;20140;-61
2023/09/08 01:45:16;;;;;;;6.47;4.72;;;11.50;99.90;;;;;;21064576;28;20024;-61
2023/09/08 01:55:18;;;;;;;7.75;5.88;;;11.60;99.90;;;;;;21063297;28;20032;-61
2023/09/08 02:05:20;;;;;;;8.55;5.55;;;11.50;99.90;;;;;;21044308;28;20036;-59
2023/09/08 02:15:21;;;;;;;6.78;5.13;;;11.40;99.90;;;;;;21061666;28;20066;-62
2023/09/08 02:25:24;;;;;;;9.35;6.65;;;11.50;99.90;;;;;;21042345;28;20105;-61
2023/09/08 02:35:26;;;;;;;11.80;6.47;;;11.60;99.90;;;;;;21024475;28;20035;-61
2023/09/08 02:45:30;;;;;;;8.45;6.00;;;11.60;99.90;;;;;;21041229;28;20062;-61
2023/09/08 02:55:32;;;;;;;8.15;6.45;;;11.50;99.90;;;;;;21058220;28;20495;-61
2023/09/08 03:05:34;;;;;;;10.65;6.47;;;11.40;99.90;;;;;;21039186;28;20032;-51
2023/09/08 03:15:37;;;;;;;11.27;7.20;;;11.50;99.90;;;;;;21057314;28;20401;-54
2023/09/08 03:25:39;;;;;;;9.65;6.50;;;11.50;99.90;;;;;;21048161;28;20028;-61
2023/09/08 03:35:41;;;;;;;7.82;5.80;;;11.50;99.90;;;;;;21002903;28;20404;-61
2023/09/08 03:45:43;;;;;;;9.25;5.90;;;11.50;99.90;;;;;;21017480;28;20431;-61
2023/09/08 03:55:46;;;;;;;9.40;6.25;;;11.50;99.90;;;;;;21014100;28;20066;-53
2023/09/08 04:05:49;;;;;;;7.72;5.82;;;11.60;99.90;;;;;;21015948;28;20077;-61
2023/09/08 04:15:51;;;;;;;7.07;5.97;;;11.70;99.90;;;;;;20998470;28;20028;-54
2023/09/08 04:25:53;;;;;;;8.70;5.50;;;11.40;99.90;;;;;;21007283;28;20037;-62
2023/09/08 04:35:56;;;;;;;9.98;6.93;;;11.60;99.90;;;;;;21015460;28;20172;-54
2023/09/08 04:45:58;;;;;;;9.95;6.15;;;11.50;99.90;;;;;;21004089;28;20040;-61
2023/09/08 04:56:00;;;;;;;9.35;7.32;;;11.40;99.90;;;;;;21011081;28;20036;-53
2023/09/08 05:06:02;;;;;;;26.00;16.33;;;11.60;99.90;;;;;;21014412;28;20447;-62
2023/09/08 05:16:13;;;;;;;16.27;10.18;;;11.90;99.90;;;;;;21004725;28;20551;-61
2023/09/08 05:26:24;;;;;;;10.68;9.00;;;11.70;99.90;;;;;;21020557;28;20036;-60
2023/09/08 05:36:26;;;;;;;12.05;8.60;;;11.80;99.90;;;;;;21025974;28;20489;-62
2023/09/08 05:46:29;;;;;;;10.30;7.97;;;12.00;99.90;;;;;;21029002;28;20077;-61
2023/09/08 05:56:33;;;;;;;9.55;7.88;;;12.10;99.90;;;;;;20997858;28;20036;-61
2023/09/08 06:06:36;;;;;;;10.65;8.68;;;12.10;99.90;;;;;;21013809;28;20419;-55
2023/09/08 06:16:38;;;;;;;11.38;9.35;;;12.10;99.90;;;;;;21016935;28;20066;-60
2023/09/08 06:26:42;;;;;;;12.82;9.50;;;12.20;99.90;;;;;;21038223;28;20032;-62
2023/09/08 06:36:47;;;;;;;10.35;7.68;;;12.40;99.90;;;;;;21018516;28;20039;-54
2023/09/08 06:46:49;;;;;;;8.02;6.05;;;13.00;99.90;;;;;;21001347;28;20489;-61
2023/09/08 06:56:51;;;;;;;6.20;5.40;;;14.20;99.90;;;;;;21012429;28;20036;-60
2023/09/08 07:06:54;;;;;;;7.15;5.88;;;15.20;99.90;;;;;;21012783;28;20489;-60
2023/09/08 07:16:57;;;;;;;7.22;5.60;;;16.10;99.90;;;;;;20987875;28;20024;-62
2023/09/08 07:27:02;;;;;;;5.57;4.93;;;17.40;99.90;;;;;;21019631;28;20036;-61
2023/09/08 07:37:05;;;;;;;7.03;5.38;;;18.50;99.90;;;;;;21016288;28;20052;-61
2023/09/08 07:47:08;;;;;;;5.03;4.53;;;19.30;99.90;;;;;;20974276;28;20058;-61
2023/09/08 07:57:10;;;;;;;6.18;4.57;;;20.20;99.90;;;;;;20989911;28;20481;-61
2023/09/08 08:07:12;;;;;;;5.72;4.13;;;21.00;99.90;;;;;;21020103;28;20044;-61
2023/09/08 08:17:17;;;;;;;6.72;4.55;;;21.20;99.90;;;;;;21007996;28;20024;-60
2023/09/08 08:27:19;;;;;;;5.35;4.53;;;21.80;99.90;;;;;;20988585;28;20040;-60
2023/09/08 08:37:22;;;;;;;5.63;4.75;;;22.40;99.90;;;;;;21019464;28;20499;-60
2023/09/08 08:47:28;;;;;;;5.97;4.43;;;22.50;99.90;;;;;;21026944;28;20047;-61
2023/09/08 08:57:32;;;;;;;6.78;5.18;;;22.90;99.90;;;;;;21002329;28;20893;-60
2023/09/08 09:07:37;;;;;;;6.60;4.95;;;22.90;99.90;;;;;;21004553;28;20342;-60
2023/09/08 09:17:40;;;;;;;6.05;5.10;;;23.60;99.90;;;;;;21014523;28;20021;-59
2023/09/08 09:27:45;;;;;;;6.22;4.72;;;23.70;99.90;;;;;;20995629;28;20025;-61
2023/09/08 09:37:48;;;;;;;6.50;4.53;;;23.80;99.90;;;;;;20975497;28;20485;-59
2023/09/08 09:47:51;;;;;;;5.30;4.80;;;23.80;99.90;;;;;;21019326;28;20020;-59
2023/09/08 09:58:03;;;;;;;6.50;5.25;;;24.00;99.90;;;;;;21008444;28;20074;-53
2023/09/08 10:08:06;;;;;;;6.03;4.82;;;24.30;99.90;;;;;;21036569;28;20390;-59
2023/09/08 10:18:15;;;;;;;4.85;4.13;;;24.60;99.90;;;;;;21007323;28;20036;-59
2023/09/08 10:28:25;;;;;;;7.05;4.88;;;24.70;99.70;;;;;;21012529;28;20051;-54
2023/09/08 10:38:34;;;;;;;6.50;4.95;;;24.90;99.60;;;;;;21004625;28;20041;-59
2023/09/08 10:48:45;;;;;;;5.10;4.60;;;24.90;97.80;;;;;;21010217;28;20048;-58
2023/09/08 10:58:52;;;;;;;6.72;5.00;;;25.00;99.00;;;;;;21019050;28;20032;-59
2023/09/08 11:09:05;;;;;;;5.43;4.15;;;25.40;99.90;;;;;;21006367;28;20053;-58
2023/09/08 11:19:12;;;;;;;4.70;4.30;;;25.50;99.00;;;;;;21020219;28;20048;-58
2023/09/08 11:29:15;;;;;;;4.82;4.43;;;25.50;98.40;;;;;;21007412;28;20033;-53
2023/09/08 11:39:27;;;;;;;7.57;4.57;;;25.30;98.20;;;;;;21022771;28;20043;-58
2023/09/08 11:49:37;;;;;;;5.22;4.72;;;25.60;98.50;;;;;;20991928;28;20066;-59
2023/09/08 11:59:40;;;;;;;5.75;4.72;;;25.80;97.60;;;;;;21013929;28;20557;-59
2023/09/08 12:09:45;;;;;;;5.32;4.80;;;;;;;;;;21015390;28;20040;-58
2023/09/08 12:19:47;;;;;;;4.80;4.30;;;;;;;;;;20992812;28;20040;-59
2023/09/08 12:30:04;;;;;;;6.03;4.03;;;26.40;99.90;;;;;;20998947;28;20065;-58
2023/09/08 12:40:09;;;;;;;4.35;3.95;;;25.90;99.90;;;;;;21003601;28;20062;-59
2023/09/08 12:50:13;;;;;;;6.50;4.80;;;25.80;99.90;;;;;;21010118;28;20028;-58
2023/09/08 13:00:19;;;;;;;6.25;4.63;;;25.50;99.90;;;;;;21024093;28;20047;-59
2023/09/08 13:10:23;;;;;;;5.87;4.17;;;25.80;99.90;;;;;;21026878;28;20050;-59
2023/09/08 13:20:30;;;;;;;5.10;4.60;;;25.60;99.90;;;;;;21011396;28;20044;-60
2023/09/08 13:30:32;;;;;;;8.13;4.90;;;25.50;99.90;;;;;;21043705;28;20036;-59
2023/09/08 13:40:37;;;;;;;6.00;4.40;;;25.60;99.90;;;;;;21024478;28;20427;-59
2023/09/08 13:50:41;;;;;;;6.70;5.10;;;25.70;99.90;;;;;;21000237;28;20173;-60
2023/09/08 14:00:44;;;;;;;7.90;4.50;;;25.60;99.90;;;;;;20993175;28;20097;-59
2023/09/08 14:10:46;;;;;;;5.28;4.78;;;25.40;99.90;;;;;;21032293;28;20097;-61
2023/09/08 14:20:49;;;;;;;5.93;5.22;;;;;;;;;;21016368;28;20051;-61
2023/09/08 14:30:54;;;;;;;5.53;4.88;;;25.00;99.90;;;;;;21018428;28;20451;-61
2023/09/08 14:41:02;;;;;;;7.70;4.70;;;24.50;97.90;;;;;;21015605;28;20024;-62
2023/09/08 14:51:06;;;;;;;5.22;4.72;;;24.10;99.90;;;;;;21012089;28;20044;-62
2023/09/08 15:01:13;;;;;;;5.03;4.63;;;23.90;97.70;;;;;;20997749;28;20032;-63
2023/09/08 15:11:16;;;;;;;8.07;4.83;;;23.40;99.90;;;;;;21009125;28;20048;-63
2023/09/08 15:21:25;;;;;;;5.50;5.00;;;22.40;98.10;;;;;;21005436;28;20379;-63
2023/09/08 15:31:32;;;;;;;7.45;5.28;;;21.50;99.40;;;;;;20987295;28;20404;-61
2023/09/08 15:41:35;;;;;;;5.88;5.28;;;20.80;99.90;;;;;;21016055;28;20065;-60
2023/09/08 15:51:38;;;;;;;6.50;5.15;;;20.30;99.90;;;;;;21004252;28;20032;-55
2023/09/08 16:01:45;;;;;;;6.90;6.20;;;19.70;99.90;;;;;;20994784;28;20032;-53
2023/09/08 16:11:50;;;;;;;9.63;6.68;;;18.70;99.90;;;;;;20947873;28;20048;-55
2023/09/08 16:21:55;;;;;;;11.43;6.82;;;17.80;99.90;;;;;;21007279;28;20072;-60
2023/09/08 16:31:59;;;;;;;7.88;7.00;;;17.00;99.90;;;;;;21016932;28;20036;-61
2023/09/08 16:42:02;;;;;;;7.90;6.78;;;16.40;99.90;;;;;;21031984;28;20032;-60
2023/09/08 16:52:05;;;;;;;19.40;14.30;;;16.00;99.90;;;;;;21053717;28;20558;-61
2023/09/08 17:02:09;;;;;;;11.23;8.07;;;15.60;99.90;;;;;;21068350;28;20048;-60
2023/09/08 17:12:12;;;;;;;9.70;8.27;;;15.40;99.90;;;;;;21067511;28;20094;-61
2023/09/08 17:22:15;;;;;;;9.75;8.55;;;15.10;99.90;;;;;;21065225;28;20487;-61
2023/09/08 17:32:17;;;;;;;11.45;8.98;;;14.80;99.90;;;;;;21067489;28;20485;-61
2023/09/08 17:42:22;;;;;;;11.93;7.97;;;14.60;99.90;;;;;;21048999;28;20029;-60
2023/09/08 17:52:24;;;;;;;13.15;10.80;;;14.40;99.90;;;;;;20999246;28;20549;-59
2023/09/08 18:02:27;;;;;;;19.00;14.45;;;14.20;99.90;;;;;;21063494;28;20036;-59
2023/09/08 18:12:32;;;;;;;12.18;9.15;;;13.90;99.90;;;;;;21062560;28;20089;-60
2023/09/08 18:22:36;;;;;;;12.90;11.10;;;13.80;99.90;;;;;;21060489;28;20493;-60
2023/09/08 18:32:43;;;;;;;11.50;9.38;;;13.70;99.90;;;;;;21060609;28;20044;-61
2023/09/08 18:42:46;;;;;;;12.20;9.05;;;13.60;99.90;;;;;;21060438;28;20036;-61
2023/09/08 18:52:50;;;;;;;12.98;11.02;;;13.70;99.90;;;;;;21059381;28;20388;-60
2023/09/08 19:02:52;;;;;;;10.23;9.05;;;13.50;99.90;;;;;;21057292;28;20040;-53
2023/09/08 19:12:57;;;;;;;12.57;9.30;;;13.50;99.90;;;;;;21041255;28;20048;-61
2023/09/08 19:23:04;;;;;;;12.30;8.60;;;13.50;99.90;;;;;;21024516;28;20094;-60
2023/09/08 19:33:09;;;;;;;11.52;9.57;;;13.40;99.90;;;;;;21024703;28;20477;-60
2023/09/08 19:43:15;;;;;;;10.88;8.90;;;13.30;99.90;;;;;;21054615;28;20043;-60
2023/09/08 19:53:18;;;;;;;11.32;9.85;;;13.40;99.90;;;;;;21058509;28;20484;-61
2023/09/08 20:03:21;;;;;;;14.05;9.93;;;13.30;99.90;;;;;;21056543;28;20028;-60
2023/09/08 20:13:26;;;;;;;12.52;10.52;;;13.30;99.90;;;;;;21056036;28;20417;-59
2023/09/08 20:23:32;;;;;;;11.68;8.98;;;13.20;99.90;;;;;;21053014;28;20044;-59
2023/09/08 20:33:37;;;;;;;12.13;10.32;;;13.10;99.90;;;;;;21055447;28;20081;-61
2023/09/08 20:43:40;;;;;;;10.93;8.88;;;13.00;99.90;;;;;;21054580;28;20043;-61
2023/09/08 20:53:43;;;;;;;8.02;6.20;;;13.00;99.90;;;;;;21053831;28;20473;-60
2023/09/08 21:03:48;;;;;;;9.50;6.00;;;12.90;99.90;;;;;;21054551;28;20044;-60
2023/09/08 21:13:55;;;;;;;8.63;5.75;;;12.90;99.90;;;;;;21053597;28;20508;-60
2023/09/08 21:23:59;;;;;;;6.35;4.50;;;12.90;99.90;;;;;;21050788;28;20065;-59
2023/09/08 21:34:03;;;;;;;6.75;5.50;;;12.90;99.90;;;;;;21034473;28;20048;-60
2023/09/08 21:44:05;;;;;;;8.38;5.50;;;12.90;99.90;;;;;;21064471;28;20085;-60
2023/09/08 21:54:08;;;;;;;6.43;5.55;;;12.70;99.90;;;;;;21067155;28;20439;-54
2023/09/08 22:04:11;;;;;;;7.30;5.63;;;12.90;99.90;;;;;;21066296;28;20142;-60
2023/09/08 22:14:14;;;;;;;8.50;5.97;;;12.50;99.90;;;;;;21048482;28;20044;-60
2023/09/08 22:24:16;;;;;;;9.70;6.95;;;12.60;99.90;;;;;;21047114;28;20085;-60
2023/09/08 22:34:19;;;;;;;9.18;6.03;;;12.70;99.90;;;;;;21046262;28;20101;-54
2023/09/08 22:44:21;;;;;;;8.63;6.32;;;12.60;99.90;;;;;;21063451;28;20089;-60
2023/09/08 22:54:24;;;;;;;8.80;6.38;;;12.50;99.90;;;;;;21061243;28;20040;-59
2023/09/08 23:04:26;;;;;;;12.27;8.18;;;12.90;99.90;;;;;;21062152;28;20053;-55
2023/09/08 23:14:28;;;;;;;13.45;10.43;;;12.70;99.90;;;;;;21061943;28;20070;-60
2023/09/08 23:24:30;;;;;;;14.85;11.20;;;12.40;99.90;;;;;;21060067;28;20447;-61
2023/09/08 23:34:33;;;;;;;16.30;11.00;;;12.30;99.90;;;;;;21059667;28;20473;-54
2023/09/08 23:44:35;;;;;;;15.30;12.23;;;12.50;99.90;;;;;;21024122;28;20066;-60
2023/09/08 23:54:36;;;;;;;13.55;10.38;;;12.40;99.90;;;;;;21011994;28;20553;-60
